sensor_id;sensor_type;location;lat;lon;timestamp;pressure;altitude;pressure_sealevel;temperature;humidity
40838;BME280;29632;49.168;9.848;2022-10-16T00:01:45;96675.97;;;21.09;54.67
40838;BME280;29632;49.168;9.848;2022-10-16T00:04:12;96681.72;;;21.06;54.67
40838;BME280;29632;49.168;9.848;2022-10-16T00:06:38;96676.25;;;21.01;54.91
40838;BME280;29632;49.168;9.848;2022-10-16T00:09:04;96678.94;;;20.94;54.83
40838;BME280;29632;49.168;9.848;2022-10-16T00:11:34;96685.44;;;20.91;54.86
40838;BME280;29632;49.168;9.848;2022-10-16T00:14:03;96681.19;;;20.90;54.97
40838;BME280;29632;49.168;9.848;2022-10-16T00:16:30;96685.31;;;20.86;54.97
40838;BME280;29632;49.168;9.848;2022-10-16T00:18:56;96673.28;;;20.84;54.88
40838;BME280;29632;49.168;9.848;2022-10-16T00:21:25;96682.25;;;20.83;55.00
40838;BME280;29632;49.168;9.848;2022-10-16T00:23:56;96680.41;;;20.83;54.99
40838;BME280;29632;49.168;9.848;2022-10-16T00:26:22;96679.00;;;20.81;54.97
40838;BME280;29632;49.168;9.848;2022-10-16T00:28:49;96679.44;;;20.78;55.20
40838;BME280;29632;49.168;9.848;2022-10-16T00:31:15;96669.88;;;20.77;55.04
40838;BME280;29632;49.168;9.848;2022-10-16T00:33:42;96679.44;;;20.78;55.17
40838;BME280;29632;49.168;9.848;2022-10-16T00:36:11;96677.59;;;20.78;55.09
40838;BME280;29632;49.168;9.848;2022-10-16T00:38:38;96673.09;;;20.79;55.03
40838;BME280;29632;49.168;9.848;2022-10-16T00:41:05;96675.75;;;20.79;54.92
40838;BME280;29632;49.168;9.848;2022-10-16T00:43:58;96665.97;;;20.79;55.19
40838;BME280;29632;49.168;9.848;2022-10-16T00:46:35;96665.78;;;20.74;55.16
40838;BME280;29632;49.168;9.848;2022-10-16T00:51:38;96669.69;;;20.71;55.17
40838;BME280;29632;49.168;9.848;2022-10-16T00:54:06;96671.09;;;20.74;55.26
40838;BME280;29632;49.168;9.848;2022-10-16T00:56:33;96673.53;;;20.75;55.26
40838;BME280;29632;49.168;9.848;2022-10-16T00:58:59;96678.59;;;20.77;55.09
40838;BME280;29632;49.168;9.848;2022-10-16T01:01:27;96679.19;;;20.79;55.28
40838;BME280;29632;49.168;9.848;2022-10-16T01:03:53;96690.19;;;20.83;55.03
40838;BME280;29632;49.168;9.848;2022-10-16T01:06:24;96686.09;;;20.87;55.02
40838;BME280;29632;49.168;9.848;2022-10-16T01:09:08;96690.75;;;20.91;54.97
40838;BME280;29632;49.168;9.848;2022-10-16T01:12:05;96692.16;;;20.94;54.86
40838;BME280;29632;49.168;9.848;2022-10-16T01:14:37;96697.84;;;20.98;54.83
40838;BME280;29632;49.168;9.848;2022-10-16T01:17:16;96696.59;;;21.00;54.88
40838;BME280;29632;49.168;9.848;2022-10-16T01:22:21;96691.31;;;21.00;54.93
40838;BME280;29632;49.168;9.848;2022-10-16T01:24:50;96692.34;;;20.99;54.67
40838;BME280;29632;49.168;9.848;2022-10-16T01:27:26;96698.25;;;21.01;54.86
40838;BME280;29632;49.168;9.848;2022-10-16T01:32:36;96695.81;;;21.00;54.82
40838;BME280;29632;49.168;9.848;2022-10-16T01:38:03;96694.03;;;20.93;54.97
40838;BME280;29632;49.168;9.848;2022-10-16T01:40:30;96682.00;;;20.91;54.98
40838;BME280;29632;49.168;9.848;2022-10-16T01:43:05;96692.19;;;20.87;55.00
40838;BME280;29632;49.168;9.848;2022-10-16T01:45:32;96698.53;;;20.86;55.01
40838;BME280;29632;49.168;9.848;2022-10-16T01:48:00;96699.53;;;20.85;54.94
40838;BME280;29632;49.168;9.848;2022-10-16T01:50:26;96705.22;;;20.89;55.01
40838;BME280;29632;49.168;9.848;2022-10-16T01:52:52;96702.16;;;20.92;54.96
40838;BME280;29632;49.168;9.848;2022-10-16T01:55:23;96685.88;;;20.95;55.00
40838;BME280;29632;49.168;9.848;2022-10-16T01:57:49;96673.22;;;20.97;54.81
40838;BME280;29632;49.168;9.848;2022-10-16T02:00:17;96678.53;;;20.97;55.01
40838;BME280;29632;49.168;9.848;2022-10-16T02:02:45;96681.78;;;20.92;55.06
40838;BME280;29632;49.168;9.848;2022-10-16T02:05:23;96683.66;;;20.85;55.12
40838;BME280;29632;49.168;9.848;2022-10-16T02:07:51;96683.28;;;20.82;54.92
40838;BME280;29632;49.168;9.848;2022-10-16T02:10:17;96696.13;;;20.78;55.14
40838;BME280;29632;49.168;9.848;2022-10-16T02:12:48;96698.97;;;20.77;54.93
40838;BME280;29632;49.168;9.848;2022-10-16T02:15:15;96688.38;;;20.77;55.14
40838;BME280;29632;49.168;9.848;2022-10-16T02:17:40;96698.75;;;20.78;55.22
40838;BME280;29632;49.168;9.848;2022-10-16T02:20:07;96696.31;;;20.77;55.00
40838;BME280;29632;49.168;9.848;2022-10-16T02:22:40;96698.38;;;20.74;55.12
40838;BME280;29632;49.168;9.848;2022-10-16T02:25:24;96695.56;;;20.69;55.13
40838;BME280;29632;49.168;9.848;2022-10-16T02:33:05;96697.81;;;20.66;55.38
40838;BME280;29632;49.168;9.848;2022-10-16T02:35:33;96690.88;;;20.65;55.17
40838;BME280;29632;49.168;9.848;2022-10-16T02:37:59;96685.38;;;20.66;55.26
40838;BME280;29632;49.168;9.848;2022-10-16T02:40:25;96688.63;;;20.68;55.26
40838;BME280;29632;49.168;9.848;2022-10-16T02:42:52;96696.16;;;20.71;55.16
40838;BME280;29632;49.168;9.848;2022-10-16T02:45:18;96695.94;;;20.73;55.25
40838;BME280;29632;49.168;9.848;2022-10-16T02:47:44;96704.47;;;20.75;55.22
40838;BME280;29632;49.168;9.848;2022-10-16T02:50:10;96709.56;;;20.77;55.13
40838;BME280;29632;49.168;9.848;2022-10-16T02:52:36;96704.06;;;20.78;55.10
40838;BME280;29632;49.168;9.848;2022-10-16T02:55:02;96699.78;;;20.77;55.23
40838;BME280;29632;49.168;9.848;2022-10-16T02:57:27;96697.34;;;20.75;55.14
40838;BME280;29632;49.168;9.848;2022-10-16T02:59:53;96706.53;;;20.73;55.21
40838;BME280;29632;49.168;9.848;2022-10-16T03:02:19;96709.78;;;20.68;55.05
40838;BME280;29632;49.168;9.848;2022-10-16T03:04:44;96707.78;;;20.64;55.16
40838;BME280;29632;49.168;9.848;2022-10-16T03:07:10;96706.75;;;20.58;55.28
40838;BME280;29632;49.168;9.848;2022-10-16T03:09:35;96712.47;;;20.55;55.41
40838;BME280;29632;49.168;9.848;2022-10-16T03:12:01;96700.25;;;20.54;55.28
40838;BME280;29632;49.168;9.848;2022-10-16T03:14:27;96707.97;;;20.55;55.31
40838;BME280;29632;49.168;9.848;2022-10-16T03:16:52;96704.31;;;20.56;55.25
40838;BME280;29632;49.168;9.848;2022-10-16T03:19:18;96703.50;;;20.56;55.27
40838;BME280;29632;49.168;9.848;2022-10-16T03:21:44;96705.72;;;20.59;55.14
40838;BME280;29632;49.168;9.848;2022-10-16T03:24:10;96706.53;;;20.60;55.31
40838;BME280;29632;49.168;9.848;2022-10-16T03:26:36;96711.81;;;20.60;55.30
40838;BME280;29632;49.168;9.848;2022-10-16T03:29:02;96699.63;;;20.59;55.27
40838;BME280;29632;49.168;9.848;2022-10-16T03:31:29;96694.56;;;20.57;55.26
40838;BME280;29632;49.168;9.848;2022-10-16T03:33:55;96702.69;;;20.55;55.21
40838;BME280;29632;49.168;9.848;2022-10-16T03:36:21;96697.59;;;20.54;55.17
40838;BME280;29632;49.168;9.848;2022-10-16T03:38:46;96707.38;;;20.53;55.49
40838;BME280;29632;49.168;9.848;2022-10-16T03:41:12;96706.56;;;20.53;55.17
40838;BME280;29632;49.168;9.848;2022-10-16T03:43:38;96706.78;;;20.51;55.20
40838;BME280;29632;49.168;9.848;2022-10-16T03:46:04;96700.88;;;20.49;55.31
40838;BME280;29632;49.168;9.848;2022-10-16T03:48:29;96691.31;;;20.48;55.29
40838;BME280;29632;49.168;9.848;2022-10-16T03:50:55;96699.25;;;20.48;55.47
40838;BME280;29632;49.168;9.848;2022-10-16T03:53:21;96706.38;;;20.48;55.50
40838;BME280;29632;49.168;9.848;2022-10-16T03:55:46;96709.00;;;20.48;55.29
40838;BME280;29632;49.168;9.848;2022-10-16T03:58:12;96704.97;;;20.45;55.31
40838;BME280;29632;49.168;9.848;2022-10-16T04:00:42;96707.81;;;20.44;55.28
40838;BME280;29632;49.168;9.848;2022-10-16T04:03:08;96716.53;;;20.44;55.39
40838;BME280;29632;49.168;9.848;2022-10-16T04:05:34;96714.94;;;20.43;55.24
40838;BME280;29632;49.168;9.848;2022-10-16T04:08:00;96718.38;;;20.44;55.25
40838;BME280;29632;49.168;9.848;2022-10-16T04:10:25;96709.25;;;20.46;55.21
40838;BME280;29632;49.168;9.848;2022-10-16T04:12:51;96714.94;;;20.50;55.27
40838;BME280;29632;49.168;9.848;2022-10-16T04:15:16;96717.38;;;20.51;55.11
40838;BME280;29632;49.168;9.848;2022-10-16T04:17:42;96717.13;;;20.53;55.13
40838;BME280;29632;49.168;9.848;2022-10-16T04:20:08;96719.78;;;20.53;55.18
40838;BME280;29632;49.168;9.848;2022-10-16T04:22:34;96713.47;;;20.54;55.13
40838;BME280;29632;49.168;9.848;2022-10-16T04:24:59;96721.41;;;20.54;55.15
40838;BME280;29632;49.168;9.848;2022-10-16T04:27:25;96721.41;;;20.54;55.16
40838;BME280;29632;49.168;9.848;2022-10-16T04:29:51;96720.41;;;20.55;55.34
40838;BME280;29632;49.168;9.848;2022-10-16T04:32:16;96712.03;;;20.58;55.21
40838;BME280;29632;49.168;9.848;2022-10-16T04:34:42;96717.13;;;20.60;55.29
40838;BME280;29632;49.168;9.848;2022-10-16T04:37:07;96714.25;;;20.61;55.16
40838;BME280;29632;49.168;9.848;2022-10-16T04:39:33;96730.34;;;20.60;55.09
40838;BME280;29632;49.168;9.848;2022-10-16T04:41:59;96728.94;;;20.57;55.07
40838;BME280;29632;49.168;9.848;2022-10-16T04:44:24;96737.50;;;20.52;55.23
40838;BME280;29632;49.168;9.848;2022-10-16T04:46:51;96749.53;;;20.48;55.25
40838;BME280;29632;49.168;9.848;2022-10-16T04:49:16;96735.69;;;20.46;55.37
40838;BME280;29632;49.168;9.848;2022-10-16T04:51:42;96746.69;;;20.43;55.21
40838;BME280;29632;49.168;9.848;2022-10-16T04:54:09;96749.94;;;20.38;55.41
40838;BME280;29632;49.168;9.848;2022-10-16T04:56:35;96749.53;;;20.35;55.44
40838;BME280;29632;49.168;9.848;2022-10-16T04:59:08;96760.72;;;20.30;55.34
40838;BME280;29632;49.168;9.848;2022-10-16T05:01:34;96764.59;;;20.28;55.35
40838;BME280;29632;49.168;9.848;2022-10-16T05:03:59;96761.34;;;20.26;55.40
40838;BME280;29632;49.168;9.848;2022-10-16T05:06:25;96770.28;;;20.25;55.63
40838;BME280;29632;49.168;9.848;2022-10-16T05:08:51;96768.28;;;20.20;55.58
40838;BME280;29632;49.168;9.848;2022-10-16T05:11:16;96766.44;;;20.21;55.64
40838;BME280;29632;49.168;9.848;2022-10-16T05:13:42;96762.78;;;20.22;55.66
40838;BME280;29632;49.168;9.848;2022-10-16T05:16:08;96765.41;;;20.22;55.40
40838;BME280;29632;49.168;9.848;2022-10-16T05:18:34;96776.22;;;20.20;55.53
40838;BME280;29632;49.168;9.848;2022-10-16T05:21:00;96770.09;;;20.19;55.59
40838;BME280;29632;49.168;9.848;2022-10-16T05:23:25;96767.66;;;20.18;55.42
40838;BME280;29632;49.168;9.848;2022-10-16T05:25:52;96770.09;;;20.19;55.37
40838;BME280;29632;49.168;9.848;2022-10-16T05:28:19;96770.69;;;20.22;55.52
40838;BME280;29632;49.168;9.848;2022-10-16T05:30:44;96773.34;;;20.22;55.48
40838;BME280;29632;49.168;9.848;2022-10-16T05:33:10;96776.41;;;20.25;55.31
40838;BME280;29632;49.168;9.848;2022-10-16T05:35:36;96780.66;;;20.26;55.36
40838;BME280;29632;49.168;9.848;2022-10-16T05:38:01;96778.22;;;20.25;55.32
40838;BME280;29632;49.168;9.848;2022-10-16T05:40:27;96777.22;;;20.26;55.28
40838;BME280;29632;49.168;9.848;2022-10-16T05:42:56;96784.34;;;20.25;55.27
40838;BME280;29632;49.168;9.848;2022-10-16T05:45:21;96778.22;;;20.25;55.23
40838;BME280;29632;49.168;9.848;2022-10-16T05:47:47;96769.91;;;20.21;55.45
40838;BME280;29632;49.168;9.848;2022-10-16T05:50:13;96767.88;;;20.16;55.55
40838;BME280;29632;49.168;9.848;2022-10-16T05:52:38;96766.84;;;20.17;55.73
40838;BME280;29632;49.168;9.848;2022-10-16T05:55:04;96769.28;;;20.19;55.42
40838;BME280;29632;49.168;9.848;2022-10-16T05:57:30;96774.78;;;20.17;55.59
40838;BME280;29632;49.168;9.848;2022-10-16T05:59:56;96780.69;;;20.19;55.33
40838;BME280;29632;49.168;9.848;2022-10-16T06:02:22;96788.41;;;20.21;55.38
40838;BME280;29632;49.168;9.848;2022-10-16T06:04:47;96787.00;;;20.25;55.25
40838;BME280;29632;49.168;9.848;2022-10-16T06:07:13;96784.97;;;20.27;55.31
40838;BME280;29632;49.168;9.848;2022-10-16T06:09:39;96786.38;;;20.30;55.40
40838;BME280;29632;49.168;9.848;2022-10-16T06:12:04;96787.59;;;20.34;55.21
40838;BME280;29632;49.168;9.848;2022-10-16T06:14:30;96787.16;;;20.37;55.08
40838;BME280;29632;49.168;9.848;2022-10-16T06:16:56;96800.19;;;20.38;55.08
40838;BME280;29632;49.168;9.848;2022-10-16T06:19:21;96796.75;;;20.38;55.18
40838;BME280;29632;49.168;9.848;2022-10-16T06:21:48;96802.03;;;20.38;55.27
40838;BME280;29632;49.168;9.848;2022-10-16T06:24:13;96796.53;;;20.40;55.17
40838;BME280;29632;49.168;9.848;2022-10-16T06:26:39;96796.94;;;20.43;55.11
40838;BME280;29632;49.168;9.848;2022-10-16T06:29:05;96802.63;;;20.47;55.17
40838;BME280;29632;49.168;9.848;2022-10-16T06:31:31;96810.75;;;20.52;55.05
40838;BME280;29632;49.168;9.848;2022-10-16T06:33:59;96815.41;;;20.56;55.05
40838;BME280;29632;49.168;9.848;2022-10-16T06:36:25;96824.41;;;20.62;55.04
40838;BME280;29632;49.168;9.848;2022-10-16T06:38:51;96819.50;;;20.66;54.89
40838;BME280;29632;49.168;9.848;2022-10-16T06:41:19;96819.09;;;20.69;54.84
40838;BME280;29632;49.168;9.848;2022-10-16T06:43:46;96822.34;;;20.71;54.98
40838;BME280;29632;49.168;9.848;2022-10-16T06:46:14;96827.22;;;20.74;54.74
40838;BME280;29632;49.168;9.848;2022-10-16T06:48:40;96830.47;;;20.76;54.88
40838;BME280;29632;49.168;9.848;2022-10-16T06:51:11;96836.59;;;20.77;54.98
40838;BME280;29632;49.168;9.848;2022-10-16T06:53:39;96835.56;;;20.78;54.85
40838;BME280;29632;49.168;9.848;2022-10-16T06:56:22;96828.44;;;20.71;54.96
40838;BME280;29632;49.168;9.848;2022-10-16T06:58:49;96823.97;;;20.65;55.13
40838;BME280;29632;49.168;9.848;2022-10-16T07:01:15;96825.22;;;20.63;55.08
40838;BME280;29632;49.168;9.848;2022-10-16T07:03:43;96815.44;;;20.63;55.00
40838;BME280;29632;49.168;9.848;2022-10-16T07:06:11;96823.38;;;20.63;55.12
40838;BME280;29632;49.168;9.848;2022-10-16T07:08:39;96832.72;;;20.59;55.20
40838;BME280;29632;49.168;9.848;2022-10-16T07:11:07;96827.84;;;20.56;55.35
40838;BME280;29632;49.168;9.848;2022-10-16T07:13:34;96841.47;;;20.53;55.18
40838;BME280;29632;49.168;9.848;2022-10-16T07:16:07;96844.75;;;20.48;55.37
40838;BME280;29632;49.168;9.848;2022-10-16T07:18:33;96856.53;;;20.46;55.41
40838;BME280;29632;49.168;9.848;2022-10-16T07:23:31;96861.22;;;20.44;55.33
40838;BME280;29632;49.168;9.848;2022-10-16T07:25:57;96865.69;;;20.43;55.39
40838;BME280;29632;49.168;9.848;2022-10-16T07:28:22;96864.25;;;20.47;55.32
40838;BME280;29632;49.168;9.848;2022-10-16T07:30:48;96864.88;;;20.49;55.22
40838;BME280;29632;49.168;9.848;2022-10-16T07:33:14;96878.94;;;20.50;55.22
40838;BME280;29632;49.168;9.848;2022-10-16T07:35:51;96886.66;;;20.51;55.49
40838;BME280;29632;49.168;9.848;2022-10-16T07:38:17;96880.34;;;20.52;55.37
40838;BME280;29632;49.168;9.848;2022-10-16T07:40:43;96887.88;;;20.55;55.31
40838;BME280;29632;49.168;9.848;2022-10-16T07:43:09;96893.56;;;20.59;55.32
40838;BME280;29632;49.168;9.848;2022-10-16T07:45:35;96895.00;;;20.62;55.07
40838;BME280;29632;49.168;9.848;2022-10-16T07:48:00;96907.41;;;20.61;55.29
40838;BME280;29632;49.168;9.848;2022-10-16T07:50:26;96903.94;;;20.61;55.33
40838;BME280;29632;49.168;9.848;2022-10-16T07:52:52;96896.44;;;20.64;55.37
40838;BME280;29632;49.168;9.848;2022-10-16T07:55:17;96903.97;;;20.67;55.14
40838;BME280;29632;49.168;9.848;2022-10-16T07:57:43;96905.00;;;20.73;55.21
40838;BME280;29632;49.168;9.848;2022-10-16T08:00:09;96907.44;;;20.74;55.16
40838;BME280;29632;49.168;9.848;2022-10-16T08:02:42;96905.38;;;20.77;55.21
40838;BME280;29632;49.168;9.848;2022-10-16T08:05:08;96908.22;;;20.82;55.24
40838;BME280;29632;49.168;9.848;2022-10-16T08:07:33;96902.75;;;20.83;55.07
40838;BME280;29632;49.168;9.848;2022-10-16T08:09:59;96906.00;;;20.85;55.07
40838;BME280;29632;49.168;9.848;2022-10-16T08:12:25;96915.56;;;20.86;55.10
40838;BME280;29632;49.168;9.848;2022-10-16T08:14:51;96920.63;;;20.88;54.99
40838;BME280;29632;49.168;9.848;2022-10-16T08:17:17;96928.16;;;20.91;55.10
40838;BME280;29632;49.168;9.848;2022-10-16T08:19:46;96927.16;;;20.92;55.07
40838;BME280;29632;49.168;9.848;2022-10-16T08:22:13;96928.97;;;20.91;55.15
40838;BME280;29632;49.168;9.848;2022-10-16T08:24:39;96936.91;;;20.91;55.03
40838;BME280;29632;49.168;9.848;2022-10-16T08:27:05;96934.69;;;20.88;55.14
40838;BME280;29632;49.168;9.848;2022-10-16T08:29:31;96937.56;;;20.87;55.12
40838;BME280;29632;49.168;9.848;2022-10-16T08:31:56;96930.22;;;20.89;55.11
40838;BME280;29632;49.168;9.848;2022-10-16T08:34:22;96930.81;;;20.91;55.16
40838;BME280;29632;49.168;9.848;2022-10-16T08:36:48;96920.63;;;20.94;54.96
40838;BME280;29632;49.168;9.848;2022-10-16T08:39:13;96921.88;;;20.99;55.00
40838;BME280;29632;49.168;9.848;2022-10-16T08:47:35;96922.22;;;21.09;54.95
40838;BME280;29632;49.168;9.848;2022-10-16T08:50:18;96923.25;;;21.15;54.88
40838;BME280;29632;49.168;9.848;2022-10-16T08:52:46;96927.91;;;21.19;54.84
40838;BME280;29632;49.168;9.848;2022-10-16T08:55:41;96929.75;;;21.25;54.82
40838;BME280;29632;49.168;9.848;2022-10-16T08:58:34;96930.72;;;21.31;54.85
40838;BME280;29632;49.168;9.848;2022-10-16T09:01:04;96941.50;;;21.36;54.83
40838;BME280;29632;49.168;9.848;2022-10-16T09:12:17;96951.25;;;21.62;54.59
40838;BME280;29632;49.168;9.848;2022-10-16T09:14:59;96948.97;;;21.73;54.55
40838;BME280;29632;49.168;9.848;2022-10-16T09:17:48;96953.16;;;21.87;54.43
40838;BME280;29632;49.168;9.848;2022-10-16T09:23:28;96946.88;;;22.20;54.09
40838;BME280;29632;49.168;9.848;2022-10-16T09:25:55;96955.41;;;22.29;54.21
40838;BME280;29632;49.168;9.848;2022-10-16T09:28:21;96953.16;;;22.32;54.00
40838;BME280;29632;49.168;9.848;2022-10-16T09:30:47;96958.84;;;22.36;53.85
40838;BME280;29632;49.168;9.848;2022-10-16T09:33:17;96955.75;;;22.39;54.24
40838;BME280;29632;49.168;9.848;2022-10-16T09:35:45;96956.53;;;22.46;54.13
40838;BME280;29632;49.168;9.848;2022-10-16T09:38:40;96960.75;;;22.54;54.17
40838;BME280;29632;49.168;9.848;2022-10-16T09:41:18;96960.69;;;22.60;53.93
40838;BME280;29632;49.168;9.848;2022-10-16T09:43:57;96965.38;;;22.65;54.27
40838;BME280;29632;49.168;9.848;2022-10-16T09:46:32;96970.25;;;22.68;54.09
40838;BME280;29632;49.168;9.848;2022-10-16T09:49:25;96974.50;;;22.69;54.26
40838;BME280;29632;49.168;9.848;2022-10-16T09:51:51;96979.41;;;22.72;54.26
40838;BME280;29632;49.168;9.848;2022-10-16T09:54:28;96978.97;;;22.75;54.19
40838;BME280;29632;49.168;9.848;2022-10-16T09:57:04;96979.94;;;22.81;54.22
40838;BME280;29632;49.168;9.848;2022-10-16T09:59:31;96983.78;;;22.85;54.09
40838;BME280;29632;49.168;9.848;2022-10-16T10:02:00;96986.00;;;22.88;54.03
40838;BME280;29632;49.168;9.848;2022-10-16T10:04:52;96986.53;;;22.97;54.07
40838;BME280;29632;49.168;9.848;2022-10-16T10:07:25;96985.63;;;23.10;54.23
40838;BME280;29632;49.168;9.848;2022-10-16T10:09:51;96987.75;;;23.26;53.97
40838;BME280;29632;49.168;9.848;2022-10-16T10:14:55;96995.38;;;23.60;53.76
40838;BME280;29632;49.168;9.848;2022-10-16T10:17:28;97002.94;;;23.74;53.87
40838;BME280;29632;49.168;9.848;2022-10-16T10:19:59;97000.75;;;23.90;53.19
40838;BME280;29632;49.168;9.848;2022-10-16T10:22:42;97009.38;;;24.04;53.69
40838;BME280;29632;49.168;9.848;2022-10-16T10:35:40;97004.31;;;24.63;53.01
40838;BME280;29632;49.168;9.848;2022-10-16T10:41:07;96998.06;;;24.81;53.15
40838;BME280;29632;49.168;9.848;2022-10-16T10:57:19;97015.06;;;25.34;52.71
40838;BME280;29632;49.168;9.848;2022-10-16T11:02:38;97007.16;;;25.62;52.41
40838;BME280;29632;49.168;9.848;2022-10-16T11:05:19;97008.38;;;25.72;52.46
40838;BME280;29632;49.168;9.848;2022-10-16T11:08:07;97005.38;;;25.80;52.49
40838;BME280;29632;49.168;9.848;2022-10-16T11:10:53;97000.00;;;25.92;52.45
40838;BME280;29632;49.168;9.848;2022-10-16T11:15:57;97005.09;;;26.05;52.50
40838;BME280;29632;49.168;9.848;2022-10-16T11:21:07;97010.63;;;26.15;52.29
40838;BME280;29632;49.168;9.848;2022-10-16T11:26:23;97016.47;;;26.29;52.03
40838;BME280;29632;49.168;9.848;2022-10-16T11:28:51;96997.56;;;26.31;52.15
40838;BME280;29632;49.168;9.848;2022-10-16T11:31:39;96999.75;;;26.34;52.20
40838;BME280;29632;49.168;9.848;2022-10-16T11:34:12;97005.44;;;26.37;52.19
40838;BME280;29632;49.168;9.848;2022-10-16T11:36:57;97007.28;;;26.37;52.00
40838;BME280;29632;49.168;9.848;2022-10-16T11:39:28;97000.56;;;26.34;52.09
40838;BME280;29632;49.168;9.848;2022-10-16T11:47:36;97001.69;;;26.38;52.02
40838;BME280;29632;49.168;9.848;2022-10-16T11:50:28;96998.06;;;26.45;52.09
40838;BME280;29632;49.168;9.848;2022-10-16T11:53:18;97000.44;;;26.58;51.94
40838;BME280;29632;49.168;9.848;2022-10-16T11:55:47;96996.34;;;26.67;51.73
40838;BME280;29632;49.168;9.848;2022-10-16T11:58:29;96995.97;;;26.75;51.67
40838;BME280;29632;49.168;9.848;2022-10-16T12:01:17;96992.88;;;26.84;51.45
40838;BME280;29632;49.168;9.848;2022-10-16T12:07:02;96985.91;;;27.00;51.13
40838;BME280;29632;49.168;9.848;2022-10-16T12:09:31;96986.28;;;27.08;51.13
40838;BME280;29632;49.168;9.848;2022-10-16T12:11:57;96990.69;;;27.15;51.16
40838;BME280;29632;49.168;9.848;2022-10-16T12:14:35;97002.81;;;27.22;50.89
40838;BME280;29632;49.168;9.848;2022-10-16T12:19:56;96998.16;;;27.29;51.17
40838;BME280;29632;49.168;9.848;2022-10-16T12:22:29;96998.16;;;27.29;51.02
40838;BME280;29632;49.168;9.848;2022-10-16T12:24:55;97004.06;;;27.31;51.09
40838;BME280;29632;49.168;9.848;2022-10-16T12:27:31;97009.25;;;27.38;51.42
40838;BME280;29632;49.168;9.848;2022-10-16T12:30:03;97002.16;;;27.49;51.06
40838;BME280;29632;49.168;9.848;2022-10-16T12:32:38;97009.31;;;27.65;51.41
40838;BME280;29632;49.168;9.848;2022-10-16T12:35:16;97004.66;;;27.78;51.44
40838;BME280;29632;49.168;9.848;2022-10-16T12:37:42;97006.41;;;27.89;51.74
40838;BME280;29632;49.168;9.848;2022-10-16T12:40:27;97008.47;;;28.04;51.65
40838;BME280;29632;49.168;9.848;2022-10-16T12:42:53;97002.78;;;28.22;51.59
40838;BME280;29632;49.168;9.848;2022-10-16T12:45:33;97005.22;;;28.51;51.58
40838;BME280;29632;49.168;9.848;2022-10-16T12:48:04;97005.16;;;28.73;51.50
40838;BME280;29632;49.168;9.848;2022-10-16T12:50:43;97011.84;;;29.03;51.41
40838;BME280;29632;49.168;9.848;2022-10-16T12:53:22;97009.13;;;29.35;50.96
40838;BME280;29632;49.168;9.848;2022-10-16T12:58:39;97009.69;;;29.90;50.96
40838;BME280;29632;49.168;9.848;2022-10-16T13:01:37;97011.13;;;30.19;50.22
40838;BME280;29632;49.168;9.848;2022-10-16T13:07:23;97023.06;;;30.54;50.36
40838;BME280;29632;49.168;9.848;2022-10-16T13:10:19;97015.81;;;30.69;49.67
40838;BME280;29632;49.168;9.848;2022-10-16T13:24:11;97027.94;;;31.23;48.89
40838;BME280;29632;49.168;9.848;2022-10-16T13:28:33;97024.78;;;32.52;46.77
40838;BME280;29632;49.168;9.848;2022-10-16T13:31:01;97032.84;;;32.97;46.09
40838;BME280;29632;49.168;9.848;2022-10-16T13:33:37;97030.25;;;32.81;46.48
40838;BME280;29632;49.168;9.848;2022-10-16T13:36:05;97030.13;;;32.62;46.56
40838;BME280;29632;49.168;9.848;2022-10-16T13:38:33;97034.06;;;32.35;47.20
40838;BME280;29632;49.168;9.848;2022-10-16T13:41:03;97032.34;;;32.05;47.69
40838;BME280;29632;49.168;9.848;2022-10-16T13:43:37;97034.56;;;31.77;47.91
40838;BME280;29632;49.168;9.848;2022-10-16T13:46:06;97035.41;;;31.52;47.92
40838;BME280;29632;49.168;9.848;2022-10-16T13:48:33;97028.72;;;31.34;48.38
40838;BME280;29632;49.168;9.848;2022-10-16T13:53:31;97034.16;;;31.03;48.19
40838;BME280;29632;49.168;9.848;2022-10-16T13:55:57;97031.97;;;30.90;48.25
40838;BME280;29632;49.168;9.848;2022-10-16T13:58:23;97036.78;;;30.78;48.18
40838;BME280;29632;49.168;9.848;2022-10-16T14:01:05;97043.19;;;30.61;48.58
40838;BME280;29632;49.168;9.848;2022-10-16T14:03:32;97039.44;;;30.52;48.03
40838;BME280;29632;49.168;9.848;2022-10-16T14:06:01;97032.72;;;30.44;48.06
40838;BME280;29632;49.168;9.848;2022-10-16T14:08:28;97032.72;;;30.39;48.23
40838;BME280;29632;49.168;9.848;2022-10-16T14:10:57;97042.31;;;30.30;48.15
40838;BME280;29632;49.168;9.848;2022-10-16T14:13:30;97042.56;;;30.18;47.74
40838;BME280;29632;49.168;9.848;2022-10-16T14:15:57;97039.56;;;30.04;48.02
40838;BME280;29632;49.168;9.848;2022-10-16T14:18:26;97045.13;;;29.92;48.49
40838;BME280;29632;49.168;9.848;2022-10-16T14:20:53;97042.66;;;29.81;48.28
40838;BME280;29632;49.168;9.848;2022-10-16T14:23:28;97047.91;;;29.65;48.37
40838;BME280;29632;49.168;9.848;2022-10-16T14:25:53;97041.97;;;29.58;48.06
40838;BME280;29632;49.168;9.848;2022-10-16T14:28:21;97046.50;;;29.52;48.58
40838;BME280;29632;49.168;9.848;2022-10-16T14:36:00;97035.31;;;29.23;48.24
40838;BME280;29632;49.168;9.848;2022-10-16T14:38:26;97042.72;;;29.11;48.08
40838;BME280;29632;49.168;9.848;2022-10-16T14:40:52;97039.66;;;28.97;48.06
40838;BME280;29632;49.168;9.848;2022-10-16T14:43:26;97041.16;;;28.83;48.44
40838;BME280;29632;49.168;9.848;2022-10-16T14:45:55;97046.41;;;28.72;48.52
40838;BME280;29632;49.168;9.848;2022-10-16T14:48:22;97055.72;;;28.65;48.01
40838;BME280;29632;49.168;9.848;2022-10-16T14:50:48;97052.69;;;28.56;48.21
40838;BME280;29632;49.168;9.848;2022-10-16T14:53:14;97053.66;;;28.50;48.25
40838;BME280;29632;49.168;9.848;2022-10-16T14:55:40;97050.13;;;28.44;48.34
40838;BME280;29632;49.168;9.848;2022-10-16T14:58:11;97043.38;;;28.36;48.24
40838;BME280;29632;49.168;9.848;2022-10-16T15:00:39;97044.84;;;28.27;48.40
40838;BME280;29632;49.168;9.848;2022-10-16T15:03:04;97045.81;;;28.16;48.37
40838;BME280;29632;49.168;9.848;2022-10-16T15:05:30;97049.72;;;28.08;48.21
40838;BME280;29632;49.168;9.848;2022-10-16T15:07:57;97045.88;;;27.99;48.29